createdAt,value
2018-06-08T00:00:02.246Z,15.63
2018-06-08T00:02:30.414Z,14.83
2018-06-08T00:04:58.609Z,16.32
2018-06-08T00:07:26.785Z,15.38
2018-06-08T00:09:54.978Z,16.45
2018-06-08T00:12:23.158Z,15.75
2018-06-08T00:14:51.354Z,16.10
2018-06-08T00:17:19.534Z,17.77
2018-06-08T00:19:47.722Z,17.52
2018-06-08T00:22:15.901Z,17.30
2018-06-08T00:24:44.098Z,17.80
2018-06-08T00:27:12.278Z,17.42
2018-06-08T00:29:41.389Z,17.70
2018-06-08T00:32:09.497Z,19.48
2018-06-08T00:34:37.658Z,18.12
2018-06-08T00:37:05.849Z,16.50
2018-06-08T00:39:34.046Z,18.17
2018-06-08T00:42:02.218Z,18.07
2018-06-08T00:44:30.411Z,17.85
2018-06-08T00:46:58.590Z,17.62
2018-06-08T00:49:26.782Z,17.05
2018-06-08T00:51:54.966Z,19.23
2018-06-08T00:54:23.158Z,17.60
2018-06-08T00:57:04.526Z,17.65
2018-06-08T00:59:32.638Z,18.50
2018-06-08T01:02:00.825Z,17.75
2018-06-08T01:04:29.049Z,17.67
2018-06-08T01:06:57.217Z,17.35
2018-06-08T01:09:25.446Z,18.17
2018-06-08T01:11:53.563Z,18.77
2018-06-08T01:14:29.425Z,18.10
2018-06-08T01:16:58.302Z,19.48
2018-06-08T01:19:26.505Z,21.50
2018-06-08T01:21:54.598Z,20.77
2018-06-08T01:24:22.799Z,20.70
2018-06-08T01:26:50.895Z,20.35
2018-06-08T01:29:19.076Z,22.25
2018-06-08T01:31:47.257Z,23.07
2018-06-08T01:34:15.449Z,23.25
2018-06-08T01:36:43.626Z,22.87
2018-06-08T01:39:11.821Z,21.40
2018-06-08T01:41:40.002Z,24.55
2018-06-08T01:44:08.195Z,25.17
2018-06-08T01:46:36.378Z,25.32
2018-06-08T01:49:04.610Z,25.17
2018-06-08T01:51:32.754Z,26.23
2018-06-08T01:54:00.950Z,25.68
2018-06-08T01:56:29.650Z,24.92
2018-06-08T01:58:58.050Z,26.00
2018-06-08T02:01:26.218Z,25.12
2018-06-08T02:03:54.390Z,24.82
2018-06-08T02:06:22.589Z,27.15
2018-06-08T02:08:50.778Z,25.50
2018-06-08T02:11:18.958Z,24.98
2018-06-08T02:13:47.141Z,25.95
2018-06-08T02:16:15.338Z,25.43
2018-06-08T02:18:43.524Z,25.15
2018-06-08T02:21:11.714Z,25.77
2018-06-08T02:23:40.242Z,24.77
2018-06-08T02:26:08.390Z,26.33
2018-06-08T02:28:36.562Z,26.33
2018-06-08T02:31:04.758Z,27.55
2018-06-08T02:33:32.946Z,27.35
2018-06-08T02:36:01.149Z,28.02
2018-06-08T02:38:29.321Z,27.48
2018-06-08T02:40:57.520Z,26.87
2018-06-08T02:43:25.697Z,27.02
2018-06-08T02:45:53.887Z,27.17
2018-06-08T02:48:22.065Z,23.65
2018-06-08T02:50:50.261Z,24.82
2018-06-08T02:53:18.438Z,23.85
2018-06-08T02:55:46.629Z,23.10
2018-06-08T02:58:14.814Z,23.18
2018-06-08T03:00:43.011Z,24.12
2018-06-08T03:03:11.195Z,24.02
2018-06-08T03:05:39.391Z,24.07
2018-06-08T03:08:07.562Z,23.90
2018-06-08T03:10:35.758Z,24.55
2018-06-08T03:13:03.945Z,27.10
2018-06-08T03:15:32.147Z,24.30
2018-06-08T03:18:00.325Z,25.57
2018-06-08T03:20:28.494Z,24.23
2018-06-08T03:22:56.674Z,24.82
2018-06-08T03:25:24.886Z,23.50
2018-06-08T03:27:53.058Z,24.02
2018-06-08T03:30:21.308Z,24.77
2018-06-08T03:32:49.440Z,22.15
2018-06-08T03:35:17.767Z,20.85
2018-06-08T03:37:49.283Z,21.68
2018-06-08T03:40:18.614Z,22.07
2018-06-08T03:42:46.793Z,23.32
2018-06-08T03:45:15.003Z,24.15
2018-06-08T03:47:43.165Z,24.82
2018-06-08T03:50:12.286Z,21.90
2018-06-08T03:52:40.463Z,22.50
2018-06-08T03:55:08.659Z,23.98
2018-06-08T03:57:36.838Z,23.85
2018-06-08T04:00:05.961Z,24.27
2018-06-08T04:02:34.131Z,25.25
2018-06-08T04:05:02.330Z,24.23
2018-06-08T04:07:30.501Z,24.05
2018-06-08T04:09:58.602Z,25.37
2018-06-08T04:12:26.710Z,22.93
2018-06-08T04:14:54.863Z,23.90
2018-06-08T04:17:23.063Z,24.90
2018-06-08T04:19:51.233Z,25.32
2018-06-08T04:22:19.433Z,25.62
2018-06-08T04:24:47.714Z,27.13
2018-06-08T04:27:15.910Z,26.73
2018-06-08T04:29:44.077Z,28.38
2018-06-08T04:32:12.270Z,29.65
2018-06-08T04:34:40.445Z,29.87
2018-06-08T04:37:08.638Z,29.32
2018-06-08T04:39:36.822Z,28.92
2018-06-08T04:42:05.017Z,30.32
2018-06-08T04:44:33.195Z,30.40
2018-06-08T04:47:01.395Z,31.57
2018-06-08T04:49:29.577Z,30.17
2018-06-08T04:51:57.769Z,31.30
2018-06-08T04:54:25.946Z,31.15
2018-06-08T04:56:54.228Z,32.13
2018-06-08T04:59:22.415Z,33.10
2018-06-08T05:01:50.512Z,31.25
2018-06-08T05:04:18.598Z,30.88
2018-06-08T05:06:46.781Z,32.73
2018-06-08T05:09:14.949Z,34.00
2018-06-08T05:11:43.150Z,33.63
2018-06-08T05:14:11.334Z,33.02
2018-06-08T05:16:39.426Z,34.00
2018-06-08T05:19:07.613Z,33.13
2018-06-08T05:21:35.798Z,34.60
2018-06-08T05:24:03.978Z,34.48
2018-06-08T05:26:32.179Z,34.18
2018-06-08T05:29:00.353Z,34.65
2018-06-08T05:31:28.553Z,33.48
2018-06-08T05:33:56.743Z,33.65
2018-06-08T05:36:24.931Z,34.92
2018-06-08T05:38:53.109Z,34.78
2018-06-08T05:41:21.205Z,33.55
2018-06-08T05:43:49.380Z,32.80
2018-06-08T05:46:17.787Z,35.48
2018-06-08T05:48:45.957Z,36.38
2018-06-08T05:51:14.159Z,35.95
2018-06-08T05:53:42.362Z,36.88
2018-06-08T05:56:10.525Z,38.33
2018-06-08T05:58:38.706Z,35.38
2018-06-08T06:01:06.956Z,35.15
2018-06-08T06:03:35.082Z,33.88
2018-06-08T06:06:03.276Z,36.42
2018-06-08T06:08:31.459Z,35.03
2018-06-08T06:10:59.646Z,34.15
2018-06-08T06:13:27.826Z,35.75
2018-06-08T06:15:56.018Z,34.60
2018-06-08T06:18:24.218Z,32.17
2018-06-08T06:20:52.397Z,30.48
2018-06-08T06:23:21.614Z,32.00
2018-06-08T06:25:49.794Z,31.85
2018-06-08T06:28:17.973Z,32.55
2018-06-08T06:30:46.162Z,31.77
2018-06-08T06:33:14.354Z,31.73
2018-06-08T06:35:42.542Z,31.73
2018-06-08T06:38:10.726Z,30.95
2018-06-08T06:40:38.905Z,31.15
2018-06-08T06:43:07.109Z,29.65
2018-06-08T06:45:35.282Z,27.90
2018-06-08T06:48:03.478Z,24.63
2018-06-08T06:50:31.654Z,25.72
2018-06-08T06:52:59.845Z,22.95
2018-06-08T06:55:28.034Z,21.50
2018-06-08T06:57:57.166Z,21.80
2018-06-08T07:00:25.413Z,18.50
2018-06-08T07:02:53.530Z,17.17
2018-06-08T07:05:21.701Z,17.17
2018-06-08T07:07:49.894Z,18.10
2018-06-08T07:10:18.076Z,20.17
2018-06-08T07:12:46.294Z,21.20
2018-06-08T07:15:14.443Z,21.73
2018-06-08T07:17:42.645Z,21.48
2018-06-08T07:20:10.742Z,20.68
2018-06-08T07:22:38.939Z,19.95
2018-06-08T07:25:07.111Z,20.20
2018-06-08T07:27:35.294Z,21.80
2018-06-08T07:30:03.463Z,20.80
2018-06-08T07:32:31.648Z,22.73
2018-06-08T07:34:59.830Z,19.67
2018-06-08T07:37:28.027Z,16.70
2018-06-08T07:39:56.219Z,16.52
2018-06-08T07:42:24.399Z,16.27
2018-06-08T07:44:52.570Z,16.93
2018-06-08T07:47:20.774Z,15.93
2018-06-08T07:49:48.950Z,15.08
2018-06-08T07:52:17.141Z,14.03
2018-06-08T07:54:45.326Z,12.80
2018-06-08T07:57:13.523Z,14.18
2018-06-08T07:59:41.686Z,13.65
2018-06-08T08:02:09.885Z,14.70
2018-06-08T08:04:38.072Z,13.90
2018-06-08T08:07:06.170Z,14.53
2018-06-08T08:09:34.337Z,15.85
2018-06-08T08:12:02.539Z,14.65
2018-06-08T08:14:30.710Z,15.13
2018-06-08T08:16:58.906Z,15.08
2018-06-08T08:19:27.091Z,13.72
2018-06-08T08:21:55.296Z,14.45
2018-06-08T08:24:23.398Z,13.70
2018-06-08T08:26:51.566Z,12.75
2018-06-08T08:29:19.751Z,12.63
2018-06-08T08:31:47.930Z,12.95
2018-06-08T08:34:16.146Z,13.22
2018-06-08T08:36:44.230Z,12.90
2018-06-08T08:39:12.395Z,12.80
2018-06-08T08:41:40.582Z,13.00
2018-06-08T08:44:08.681Z,11.15
2018-06-08T08:46:36.781Z,11.97
2018-06-08T08:49:04.930Z,11.63
2018-06-08T08:51:33.197Z,11.43
2018-06-08T08:54:01.315Z,12.03
2018-06-08T08:56:29.490Z,11.88
2018-06-08T08:58:57.599Z,11.90
2018-06-08T09:01:25.765Z,11.43
2018-06-08T09:03:53.958Z,13.08
2018-06-08T09:06:22.034Z,12.18
2018-06-08T09:08:50.233Z,12.53
2018-06-08T09:11:18.412Z,12.75
2018-06-08T09:13:46.598Z,13.03
2018-06-08T09:16:14.786Z,12.58
2018-06-08T09:18:42.890Z,12.20
2018-06-08T09:21:11.054Z,12.58
2018-06-08T09:23:39.237Z,12.25
2018-06-08T09:26:07.422Z,12.63
2018-06-08T09:28:35.609Z,13.58
2018-06-08T09:31:03.791Z,15.13
2018-06-08T09:33:31.890Z,12.33
2018-06-08T09:36:00.051Z,13.50
2018-06-08T09:38:28.250Z,13.10
2018-06-08T09:40:56.435Z,12.25
2018-06-08T09:43:24.634Z,14.33
2018-06-08T09:45:52.811Z,13.40
2018-06-08T09:48:21.093Z,13.90
2018-06-08T09:50:49.174Z,12.68
2018-06-08T09:53:17.406Z,12.93
2018-06-08T09:55:45.555Z,12.85
2018-06-08T09:58:13.746Z,12.98
2018-06-08T10:00:42.867Z,12.80
2018-06-08T10:03:11.055Z,13.48
2018-06-08T10:05:39.238Z,13.28
2018-06-08T10:08:07.541Z,12.45
2018-06-08T10:10:35.699Z,11.95
2018-06-08T10:13:03.802Z,11.28
2018-06-08T10:15:31.974Z,10.53
2018-06-08T10:18:00.170Z,11.55
2018-06-08T10:20:28.353Z,10.72
2018-06-08T10:22:56.548Z,11.38
2018-06-08T10:25:24.738Z,11.18
2018-06-08T10:27:52.934Z,11.55
2018-06-08T10:30:21.218Z,11.00
2018-06-08T10:32:49.390Z,11.55
2018-06-08T10:35:17.566Z,11.18
2018-06-08T10:37:45.770Z,10.55
2018-06-08T10:40:14.974Z,13.03
2018-06-08T10:42:43.150Z,13.62
2018-06-08T10:45:11.349Z,13.28
2018-06-08T10:47:39.533Z,12.93
2018-06-08T10:50:07.731Z,12.35
2018-06-08T10:52:35.902Z,12.18
2018-06-08T10:55:04.090Z,12.07
2018-06-08T10:57:32.274Z,12.80
2018-06-08T11:00:01.393Z,11.20
2018-06-08T11:02:29.562Z,12.80
2018-06-08T11:04:57.757Z,11.90
2018-06-08T11:07:25.845Z,12.80
2018-06-08T11:09:54.958Z,10.88
2018-06-08T11:12:23.142Z,13.53
2018-06-08T11:14:51.330Z,13.40
2018-06-08T11:17:19.517Z,13.40
2018-06-08T11:19:47.711Z,12.00
2018-06-08T11:22:15.891Z,12.93
2018-06-08T11:24:44.075Z,14.03
2018-06-08T11:27:12.258Z,12.90
2018-06-08T11:29:41.371Z,13.08
2018-06-08T11:32:09.545Z,12.00
2018-06-08T11:34:37.750Z,12.23
2018-06-08T11:37:05.922Z,12.82
2018-06-08T11:39:34.068Z,13.60
2018-06-08T11:42:02.199Z,12.80
2018-06-08T11:44:30.394Z,12.75
2018-06-08T11:46:58.570Z,12.00
2018-06-08T11:49:26.766Z,11.83
2018-06-08T11:51:54.942Z,11.68
2018-06-08T11:54:23.150Z,11.57
2018-06-08T11:56:51.318Z,10.70
2018-06-08T11:59:19.514Z,11.73
2018-06-08T12:01:47.645Z,11.63
2018-06-08T12:04:15.786Z,11.43
2018-06-08T12:06:43.886Z,10.85
2018-06-08T12:09:12.362Z,12.20
2018-06-08T12:11:40.539Z,10.20
2018-06-08T12:14:08.731Z,9.43
2018-06-08T12:16:36.911Z,8.43
2018-06-08T12:19:05.112Z,10.78
2018-06-08T12:21:33.290Z,10.53
2018-06-08T12:24:01.481Z,8.33
2018-06-08T12:26:29.650Z,8.25
2018-06-08T12:28:57.843Z,8.90
2018-06-08T12:31:25.944Z,8.48
2018-06-08T12:33:54.045Z,8.40
2018-06-08T12:36:22.308Z,8.03
2018-06-08T12:38:50.411Z,7.75
2018-06-08T12:41:18.585Z,8.88
2018-06-08T12:43:46.737Z,8.70
2018-06-08T12:46:14.852Z,8.28
2018-06-08T12:48:43.047Z,8.20
2018-06-08T12:51:11.234Z,7.87
2018-06-08T12:53:39.413Z,8.15
2018-06-08T12:56:07.518Z,8.55
2018-06-08T12:58:35.610Z,8.23
2018-06-08T13:01:03.772Z,7.72
2018-06-08T13:03:31.954Z,7.65
2018-06-08T13:06:00.158Z,8.25
2018-06-08T13:08:28.334Z,8.13
2018-06-08T13:10:56.527Z,8.75
2018-06-08T13:13:24.738Z,8.58
2018-06-08T13:15:52.906Z,15.43
2018-06-08T13:18:21.085Z,16.07
2018-06-08T13:20:49.192Z,11.78
2018-06-08T13:23:17.359Z,10.35
2018-06-08T13:25:45.555Z,11.55
2018-06-08T13:28:13.714Z,8.95
2018-06-08T13:30:41.914Z,8.28
2018-06-08T13:33:10.086Z,7.85
2018-06-08T13:35:38.183Z,15.18
2018-06-08T13:38:06.365Z,10.25
2018-06-08T13:40:34.570Z,66.95
2018-06-08T13:43:02.750Z,10.65
2018-06-08T13:45:30.930Z,8.15
2018-06-08T13:47:59.098Z,8.18
2018-06-08T13:50:27.326Z,7.42
2018-06-08T13:52:55.538Z,8.05
2018-06-08T13:55:23.686Z,8.20
2018-06-08T13:57:51.846Z,7.20
2018-06-08T14:00:19.947Z,7.28
2018-06-08T14:02:48.119Z,8.63
2018-06-08T14:05:16.318Z,7.03
2018-06-08T14:07:44.502Z,7.95
2018-06-08T14:10:12.690Z,7.55
2018-06-08T14:12:40.869Z,6.95
2018-06-08T14:15:09.071Z,7.25
2018-06-08T14:17:37.238Z,6.83
2018-06-08T14:20:05.329Z,7.70
2018-06-08T14:22:33.518Z,7.10
2018-06-08T14:25:01.720Z,5.95
2018-06-08T14:27:29.902Z,6.58
2018-06-08T14:29:57.984Z,6.28
2018-06-08T14:32:26.174Z,6.70
2018-06-08T14:34:54.365Z,6.53
2018-06-08T14:37:22.558Z,6.12
2018-06-08T14:39:51.654Z,7.03
2018-06-08T14:42:19.848Z,6.50
2018-06-08T14:44:48.176Z,6.92
2018-06-08T14:47:16.310Z,7.22
2018-06-08T14:49:44.513Z,7.28
2018-06-08T14:52:12.701Z,7.53
2018-06-08T14:54:40.873Z,8.45
2018-06-08T14:57:09.066Z,7.47
2018-06-08T14:59:37.378Z,7.97
2018-06-08T15:02:05.833Z,8.20
2018-06-08T15:04:33.962Z,8.05
2018-06-08T15:07:02.131Z,7.90
2018-06-08T15:09:30.352Z,8.18
2018-06-08T15:11:58.497Z,8.30
2018-06-08T15:14:26.703Z,7.45
2018-06-08T15:16:54.907Z,8.68
2018-06-08T15:19:23.087Z,7.97
2018-06-08T15:21:51.254Z,7.72
2018-06-08T15:24:20.471Z,7.78
2018-06-08T15:26:48.642Z,7.55
2018-06-08T15:29:16.870Z,7.62
2018-06-08T15:31:45.027Z,7.20
2018-06-08T15:34:13.179Z,7.70
2018-06-08T15:36:41.269Z,6.95
2018-06-08T15:39:09.467Z,8.08
2018-06-08T15:41:37.654Z,8.08
2018-06-08T15:44:05.858Z,8.33
2018-06-08T15:46:34.043Z,7.78
2018-06-08T15:49:02.205Z,8.15
2018-06-08T15:51:30.393Z,8.40
2018-06-08T15:53:58.571Z,7.30
2018-06-08T15:56:26.765Z,7.95
2018-06-08T15:58:54.962Z,7.90
2018-06-08T16:01:23.158Z,7.67
2018-06-08T16:03:51.241Z,7.67
2018-06-08T16:06:19.422Z,7.70
2018-06-08T16:08:47.599Z,7.67
2018-06-08T16:11:15.793Z,8.05
2018-06-08T16:13:43.886Z,7.72
2018-06-08T16:16:12.066Z,7.67
2018-06-08T16:18:40.233Z,7.30
2018-06-08T16:21:08.436Z,7.00
2018-06-08T16:23:36.619Z,7.22
2018-06-08T16:26:04.810Z,7.47
2018-06-08T16:28:32.981Z,7.22
2018-06-08T16:31:01.075Z,6.12
2018-06-08T16:33:29.262Z,6.17
2018-06-08T16:35:57.446Z,6.35
2018-06-08T16:38:25.625Z,6.08
2018-06-08T16:40:53.734Z,6.35
2018-06-08T16:43:21.909Z,6.72
2018-06-08T16:45:50.094Z,6.67
2018-06-08T16:48:18.269Z,6.40
2018-06-08T16:50:46.364Z,6.00
2018-06-08T16:53:14.546Z,6.05
2018-06-08T16:55:42.738Z,6.42
2018-06-08T16:58:10.914Z,6.62
2018-06-08T17:00:43.652Z,6.25
2018-06-08T17:03:13.115Z,6.45
2018-06-08T17:05:41.238Z,6.60
2018-06-08T17:08:09.410Z,6.60
2018-06-08T17:10:37.591Z,7.33
2018-06-08T17:13:05.794Z,6.10
2018-06-08T17:15:33.961Z,7.03
2018-06-08T17:18:02.197Z,6.92
2018-06-08T17:20:30.346Z,5.83
2018-06-08T17:22:58.534Z,6.67
2018-06-08T17:25:26.714Z,7.00
2018-06-08T17:27:54.815Z,7.37
2018-06-08T17:30:22.990Z,6.30
2018-06-08T17:32:51.201Z,6.55
2018-06-08T17:35:19.377Z,6.78
2018-06-08T17:37:47.596Z,6.78
2018-06-08T17:40:15.682Z,7.55
2018-06-08T17:42:43.897Z,8.90
2018-06-08T17:45:11.833Z,8.88
2018-06-08T17:47:39.935Z,9.85
2018-06-08T17:50:08.086Z,11.03
2018-06-08T17:52:36.198Z,10.15
2018-06-08T17:55:04.357Z,10.43
2018-06-08T17:57:32.546Z,10.45
2018-06-08T18:00:00.746Z,10.45
2018-06-08T18:02:28.922Z,10.13
2018-06-08T18:04:57.116Z,9.40
2018-06-08T18:07:25.289Z,7.10
2018-06-08T18:09:53.490Z,6.10
2018-06-08T18:12:21.671Z,6.00
2018-06-08T18:14:49.858Z,5.70
2018-06-08T18:17:18.254Z,6.53
2018-06-08T18:19:46.426Z,6.00
2018-06-08T18:22:14.631Z,5.22
2018-06-08T18:24:42.790Z,5.83
2018-06-08T18:27:10.993Z,5.97
2018-06-08T18:29:39.179Z,5.85
2018-06-08T18:32:07.370Z,6.10
2018-06-08T18:34:35.545Z,6.28
2018-06-08T18:37:03.742Z,5.75
2018-06-08T18:39:31.927Z,6.33
2018-06-08T18:42:00.114Z,6.03
2018-06-08T18:44:28.302Z,5.90
2018-06-08T18:46:56.490Z,6.28
2018-06-08T18:49:24.716Z,6.78
2018-06-08T18:51:52.875Z,6.50
2018-06-08T18:54:21.097Z,6.10
2018-06-08T18:56:49.241Z,6.05
2018-06-08T18:59:17.408Z,6.50
2018-06-08T19:01:45.605Z,6.62
2018-06-08T19:04:13.794Z,6.87
2018-06-08T19:06:41.891Z,6.42
2018-06-08T19:09:10.078Z,6.55
2018-06-08T19:11:38.266Z,6.58
2018-06-08T19:14:06.436Z,6.25
2018-06-08T19:16:34.531Z,5.67
2018-06-08T19:19:02.747Z,6.55
2018-06-08T19:21:30.917Z,7.08
2018-06-08T19:23:59.099Z,6.35
2018-06-08T19:26:27.272Z,5.92
2018-06-08T19:28:55.458Z,6.20
2018-06-08T19:31:23.657Z,5.72
2018-06-08T19:33:51.853Z,5.87
2018-06-08T19:36:20.835Z,5.95
2018-06-08T19:38:49.026Z,6.25
2018-06-08T19:41:17.211Z,5.78
2018-06-08T19:43:45.398Z,5.72
2018-06-08T19:46:13.582Z,5.55
2018-06-08T19:48:41.777Z,5.60
2018-06-08T19:51:09.962Z,5.42
2018-06-08T19:53:38.145Z,6.55
2018-06-08T19:56:06.335Z,5.92
2018-06-08T19:58:34.510Z,5.72
2018-06-08T20:01:02.721Z,6.20
2018-06-08T20:03:30.898Z,5.28
2018-06-08T20:05:59.087Z,5.83
2018-06-08T20:08:27.290Z,5.92
2018-06-08T20:10:55.466Z,6.62
2018-06-08T20:13:23.638Z,5.92
2018-06-08T20:15:51.830Z,6.42
2018-06-08T20:18:20.011Z,6.12
2018-06-08T20:20:48.306Z,5.85
2018-06-08T20:23:16.486Z,5.55
2018-06-08T20:25:44.698Z,6.35
2018-06-08T20:28:12.785Z,6.05
2018-06-08T20:30:40.938Z,5.78
2018-06-08T20:33:09.126Z,6.20
2018-06-08T20:35:37.307Z,6.08
2018-06-08T20:38:05.503Z,6.30
2018-06-08T20:40:33.687Z,6.30
2018-06-08T20:43:01.878Z,6.33
2018-06-08T20:45:30.046Z,6.22
2018-06-08T20:47:58.150Z,6.40
2018-06-08T20:50:26.337Z,6.08
2018-06-08T20:52:54.517Z,6.90
2018-06-08T20:55:22.713Z,6.35
2018-06-08T20:57:59.365Z,7.17
2018-06-08T21:00:27.502Z,6.72
2018-06-08T21:02:55.672Z,6.75
2018-06-08T21:05:23.874Z,6.75
2018-06-08T21:07:52.042Z,6.72
2018-06-08T21:10:20.215Z,6.17
2018-06-08T21:12:48.422Z,6.65
2018-06-08T21:15:16.598Z,6.55
2018-06-08T21:17:44.794Z,7.10
2018-06-08T21:20:12.986Z,6.90
2018-06-08T21:22:41.171Z,6.60
2018-06-08T21:25:09.359Z,6.62
2018-06-08T21:27:37.525Z,7.17
2018-06-08T21:30:06.049Z,6.83
2018-06-08T21:32:34.229Z,7.90
2018-06-08T21:35:02.422Z,6.80
2018-06-08T21:37:30.586Z,6.67
2018-06-08T21:39:58.781Z,6.45
2018-06-08T21:42:26.879Z,7.50
2018-06-08T21:44:55.059Z,7.17
2018-06-08T21:47:23.237Z,7.35
2018-06-08T21:49:51.433Z,7.40
2018-06-08T21:52:19.614Z,7.30
2018-06-08T21:54:47.808Z,7.42
2018-06-08T21:57:15.986Z,8.00
2018-06-08T21:59:44.175Z,8.10
2018-06-08T22:02:12.366Z,7.97
2018-06-08T22:04:40.574Z,7.87
2018-06-08T22:07:08.874Z,7.55
2018-06-08T22:09:38.048Z,7.37
2018-06-08T22:12:06.147Z,8.30
2018-06-08T22:14:34.318Z,8.33
2018-06-08T22:17:02.523Z,7.78
2018-06-08T22:19:30.702Z,8.08
2018-06-08T22:21:58.881Z,8.18
2018-06-08T22:24:27.110Z,8.10
2018-06-08T22:26:55.263Z,7.75
2018-06-08T22:29:23.477Z,7.17
2018-06-08T22:31:51.646Z,7.62
2018-06-08T22:34:19.818Z,7.65
2018-06-08T22:36:47.958Z,8.33
2018-06-08T22:39:16.075Z,7.67
2018-06-08T22:41:44.306Z,8.08
2018-06-08T22:44:12.458Z,8.23
2018-06-08T22:46:40.674Z,8.18
2018-06-08T22:49:08.841Z,8.53
2018-06-08T22:51:37.016Z,8.38
2018-06-08T22:54:05.094Z,8.55
2018-06-08T22:56:33.306Z,8.13
2018-06-08T22:59:01.462Z,8.40
2018-06-08T23:01:29.662Z,8.58
2018-06-08T23:03:57.883Z,9.05
2018-06-08T23:06:26.050Z,8.23
2018-06-08T23:08:54.233Z,8.70
2018-06-08T23:11:22.447Z,8.18
2018-06-08T23:13:50.620Z,8.70
2018-06-08T23:16:18.780Z,8.83
2018-06-08T23:18:46.975Z,8.35
2018-06-08T23:21:15.074Z,8.73
2018-06-08T23:23:43.245Z,8.65
2018-06-08T23:26:11.446Z,8.65
2018-06-08T23:28:39.657Z,9.08
2018-06-08T23:31:07.817Z,9.05
2018-06-08T23:33:36.046Z,8.78
2018-06-08T23:36:04.198Z,8.98
2018-06-08T23:38:32.361Z,9.20
2018-06-08T23:41:00.550Z,9.15
2018-06-08T23:43:28.783Z,8.90
2018-06-08T23:45:56.930Z,10.18
2018-06-08T23:48:25.153Z,9.50
2018-06-08T23:50:53.311Z,9.65
2018-06-08T23:53:21.493Z,9.30
2018-06-08T23:55:49.697Z,9.35
2018-06-08T23:58:17.858Z,9.15
